Terminal Aerodrome Forecast
Issued by NWS Sterling, VA

Home | Current Version | Previous Version | Text Only | Print | Product List | Glossary On
Versions: 1 2 3 4 5 6 7 8 9 10 11 12 13 14 15 16 17 18 19 20 21 22 23
092
FTUS41 KLWX 092320
TAFBWI
TAF
KBWI 092320Z 1000/1106 29012G19KT P6SM FEW050
     FM100500 29008KT P6SM FEW150
     FM101500 28012G18KT P6SM SCT250
     FM110200 29004KT P6SM SCT250=

USA.gov is the U.S. government's official web portal to all federal, state and local government web resources and services.